createdAt,value
2023-04-21T00:01:56.279Z,93859.84
2023-04-21T00:04:24.077Z,93856.69
2023-04-21T00:06:53.194Z,93864.69
2023-04-21T00:09:20.418Z,93859.72
2023-04-21T00:11:47.260Z,93858.75
2023-04-21T00:14:14.079Z,93856.94
2023-04-21T00:16:40.860Z,93857.16
2023-04-21T00:19:08.688Z,93851.22
2023-04-21T00:21:35.761Z,93849.25
2023-04-21T00:24:02.687Z,93848.66
2023-04-21T00:26:29.432Z,93850.03
2023-04-21T00:28:56.239Z,93854.03
2023-04-21T00:31:22.988Z,93848.28
2023-04-21T00:33:49.765Z,93843.91
2023-04-21T00:36:16.522Z,93837.38
2023-04-21T00:38:43.258Z,93846.50
2023-04-21T00:41:09.968Z,93829.03
2023-04-21T00:43:36.916Z,93841.75
2023-04-21T00:46:03.744Z,93836.56
2023-04-21T00:48:30.751Z,93840.16
2023-04-21T00:50:57.515Z,93829.00
2023-04-21T00:53:24.305Z,93834.56
2023-04-21T00:55:51.189Z,93835.75
2023-04-21T00:58:17.889Z,93845.66
2023-04-21T01:00:44.712Z,93842.06
2023-04-21T01:03:11.646Z,93842.44
2023-04-21T01:05:38.602Z,93842.06
2023-04-21T01:08:06.537Z,93839.47
2023-04-21T01:10:33.663Z,93843.09
2023-04-21T01:13:00.428Z,93842.69
2023-04-21T01:15:31.111Z,93844.69
2023-04-21T01:17:58.299Z,93835.16
2023-04-21T01:20:25.232Z,93840.47
2023-04-21T01:22:52.091Z,93838.50
2023-04-21T01:25:19.891Z,93834.16
2023-04-21T01:27:46.707Z,93840.66
2023-04-21T01:30:13.559Z,93838.47
2023-04-21T01:32:40.280Z,93834.66
2023-04-21T01:35:07.525Z,93834.44
2023-04-21T01:37:34.688Z,93833.66
2023-04-21T01:40:05.451Z,93840.47
2023-04-21T01:42:32.563Z,93838.47
2023-04-21T01:45:00.147Z,93835.72
2023-04-21T01:47:27.111Z,93834.13
2023-04-21T01:49:53.888Z,93836.91
2023-04-21T01:52:21.090Z,93835.31
2023-04-21T01:54:47.985Z,93833.72
2023-04-21T01:57:15.400Z,93831.56
2023-04-21T01:59:42.251Z,93836.16
2023-04-21T02:02:09.257Z,93834.78
2023-04-21T02:04:36.485Z,93834.19
2023-04-21T02:07:03.548Z,93841.72
2023-04-21T02:09:30.257Z,93841.94
2023-04-21T02:12:00.504Z,93832.44
2023-04-21T02:14:27.271Z,93837.59
2023-04-21T02:16:54.250Z,93836.00
2023-04-21T02:19:21.260Z,93833.22
2023-04-21T02:21:48.249Z,93838.56
2023-04-21T02:24:14.945Z,93835.59
2023-04-21T02:26:41.720Z,93836.38
2023-04-21T02:29:08.449Z,93835.94
2023-04-21T02:31:46.147Z,93839.38
2023-04-21T02:34:21.425Z,93846.31
2023-04-21T02:36:48.174Z,93846.28
2023-04-21T02:39:14.895Z,93835.38
2023-04-21T02:41:41.835Z,93822.28
2023-04-21T02:44:08.488Z,93835.75
2023-04-21T02:46:35.303Z,93842.72
2023-04-21T02:49:02.169Z,93830.19
2023-04-21T02:51:28.960Z,93827.81
2023-04-21T02:53:55.922Z,93830.41
2023-04-21T02:56:22.656Z,93831.38
2023-04-21T02:58:49.412Z,93828.00
2023-04-21T03:01:16.646Z,93829.22
2023-04-21T03:03:43.754Z,93831.41
2023-04-21T03:06:10.540Z,93833.94
2023-04-21T03:08:37.347Z,93828.81
2023-04-21T03:11:04.038Z,93830.94
2023-04-21T03:13:30.737Z,93829.56
2023-04-21T03:15:57.770Z,93830.59
2023-04-21T03:18:24.479Z,93832.13
2023-04-21T03:20:51.248Z,93833.72
2023-04-21T03:23:18.012Z,93825.19
2023-04-21T03:25:44.799Z,93825.22
2023-04-21T03:28:11.521Z,93830.59
2023-04-21T03:30:38.319Z,93829.38
2023-04-21T03:33:05.137Z,93832.53
2023-04-21T03:35:31.991Z,93824.41
2023-04-21T03:37:58.741Z,93823.63
2023-04-21T03:40:25.582Z,93823.22
2023-04-21T03:42:52.302Z,93817.28
2023-04-21T03:45:22.746Z,93813.13
2023-04-21T03:47:49.756Z,93813.91
2023-04-21T03:50:17.328Z,93822.63
2023-04-21T03:52:44.088Z,93820.00
2023-04-21T03:55:11.783Z,93819.81
2023-04-21T03:57:42.131Z,93811.03
2023-04-21T04:00:12.989Z,93825.16
2023-04-21T04:02:40.910Z,93827.88
2023-04-21T04:05:08.350Z,93836.81
2023-04-21T04:07:35.217Z,93838.13
2023-04-21T04:10:01.959Z,93830.22
2023-04-21T04:12:28.672Z,93842.34
2023-04-21T04:14:55.431Z,93839.13
2023-04-21T04:17:22.287Z,93839.13
2023-04-21T04:19:49.049Z,93852.25
2023-04-21T04:22:15.772Z,93846.34
2023-04-21T04:24:45.122Z,93850.97
2023-04-21T04:27:14.115Z,93840.06
2023-04-21T04:29:41.277Z,93845.41
2023-04-21T04:32:11.266Z,93844.03
2023-04-21T04:34:38.325Z,93853.38
2023-04-21T04:37:05.168Z,93844.47
2023-04-21T04:39:32.279Z,93843.28
2023-04-21T04:41:59.422Z,93845.84
2023-04-21T04:44:26.105Z,93842.91
2023-04-21T04:46:52.985Z,93851.84
2023-04-21T04:49:20.861Z,93854.81
2023-04-21T04:51:48.368Z,93858.78
2023-04-21T04:54:15.138Z,93855.00
2023-04-21T04:56:41.836Z,93853.22
2023-04-21T04:59:08.599Z,93856.81
2023-04-21T05:01:35.381Z,93848.09
2023-04-21T05:04:02.350Z,93840.53
2023-04-21T05:06:29.274Z,93852.78
2023-04-21T05:08:56.251Z,93848.41
2023-04-21T05:11:23.295Z,93851.72
2023-04-21T05:13:49.998Z,93850.50
2023-04-21T05:16:16.777Z,93848.34
2023-04-21T05:18:43.588Z,93853.31
2023-04-21T05:21:10.342Z,93852.13
2023-04-21T05:23:37.197Z,93859.50
2023-04-21T05:26:04.677Z,93866.81
2023-04-21T05:28:32.085Z,93858.25
2023-04-21T05:30:58.818Z,93867.78
2023-04-21T05:33:27.136Z,93863.78
2023-04-21T05:35:53.943Z,93865.75
2023-04-21T05:38:20.874Z,93869.69
2023-04-21T05:40:54.294Z,93864.91
2023-04-21T05:43:21.332Z,93871.47
2023-04-21T05:45:48.400Z,93866.50
2023-04-21T05:48:15.425Z,93865.69
2023-04-21T05:50:42.355Z,93865.91
2023-04-21T05:53:09.027Z,93868.84
2023-04-21T05:55:36.239Z,93865.94
2023-04-21T05:58:04.148Z,93858.81
2023-04-21T06:00:31.043Z,93866.00
2023-04-21T06:02:57.985Z,93862.16
2023-04-21T06:05:24.746Z,93856.22
2023-04-21T06:07:51.524Z,93860.59
2023-04-21T06:10:18.566Z,93862.75
2023-04-21T06:12:45.555Z,93858.34
2023-04-21T06:15:12.266Z,93859.53
2023-04-21T06:17:38.970Z,93860.91
2023-04-21T06:20:06.619Z,93865.81
2023-04-21T06:22:33.804Z,93863.81
2023-04-21T06:25:00.778Z,93856.84
2023-04-21T06:27:27.592Z,93868.38
2023-04-21T06:29:56.071Z,93865.78
2023-04-21T06:32:22.892Z,93862.38
2023-04-21T06:34:49.631Z,93857.00
2023-04-21T06:37:16.634Z,93860.38
2023-04-21T06:39:43.345Z,93852.47
2023-04-21T06:42:10.128Z,93838.31
2023-04-21T06:44:38.199Z,93861.69
2023-04-21T06:47:05.078Z,93849.28
2023-04-21T06:49:31.803Z,93859.06
2023-04-21T06:51:58.497Z,93868.66
2023-04-21T06:54:25.331Z,93861.31
2023-04-21T06:56:52.127Z,93865.13
2023-04-21T06:59:19.094Z,93854.88
2023-04-21T07:01:46.088Z,93859.44
2023-04-21T07:04:12.788Z,93869.66
2023-04-21T07:06:39.494Z,93874.13
2023-04-21T07:09:06.269Z,93874.91
2023-04-21T07:11:33.050Z,93874.69
2023-04-21T07:14:02.311Z,93881.53
2023-04-21T07:16:29.697Z,93881.63
2023-04-21T07:18:56.937Z,93883.34
2023-04-21T07:21:23.733Z,93875.22
2023-04-21T07:23:50.567Z,93878.69
2023-04-21T07:26:18.983Z,93876.22
2023-04-21T07:28:45.784Z,93873.50
2023-04-21T07:31:12.542Z,93869.69
2023-04-21T07:33:39.243Z,93863.72
2023-04-21T07:36:06.335Z,93869.59
2023-04-21T07:38:34.708Z,93862.25
2023-04-21T07:41:01.602Z,93869.03
2023-04-21T07:43:30.436Z,93865.66
2023-04-21T07:45:58.343Z,93865.16
2023-04-21T07:48:25.189Z,93864.88
2023-04-21T07:50:53.584Z,93864.94
2023-04-21T07:53:20.390Z,93859.41
2023-04-21T07:55:47.226Z,93863.63
2023-04-21T07:58:14.004Z,93861.28
2023-04-21T08:00:42.026Z,93864.16
2023-04-21T08:03:09.077Z,93857.84
2023-04-21T08:05:40.101Z,93854.34
2023-04-21T08:08:08.140Z,93867.19
2023-04-21T08:10:34.964Z,93865.84
2023-04-21T08:13:03.020Z,93857.81
2023-04-21T08:15:29.761Z,93864.13
2023-04-21T08:17:56.600Z,93864.09
2023-04-21T08:20:23.534Z,93869.66
2023-04-21T08:22:50.394Z,93861.19
2023-04-21T08:25:17.192Z,93864.69
2023-04-21T08:27:44.032Z,93860.72
2023-04-21T08:30:11.246Z,93848.66
2023-04-21T08:32:38.000Z,93860.50
2023-04-21T08:35:05.195Z,93857.78
2023-04-21T08:37:31.887Z,93854.41
2023-04-21T08:39:58.638Z,93859.84
2023-04-21T08:42:25.375Z,93862.13
2023-04-21T08:44:52.763Z,93855.06
2023-04-21T08:47:20.787Z,93861.72
2023-04-21T08:49:48.536Z,93852.84
2023-04-21T08:52:15.368Z,93856.28
2023-04-21T08:54:42.108Z,93855.75
2023-04-21T08:57:15.324Z,93849.97
2023-04-21T08:59:43.417Z,93848.94
2023-04-21T09:02:18.085Z,93850.25
2023-04-21T09:04:47.010Z,93852.06
2023-04-21T09:07:32.074Z,93851.56
2023-04-21T09:10:00.603Z,93849.66
2023-04-21T09:12:28.044Z,93847.56
2023-04-21T09:14:54.973Z,93845.53
2023-04-21T09:17:33.946Z,93854.72
2023-04-21T09:20:21.613Z,93846.31
2023-04-21T09:22:49.961Z,93848.94
2023-04-21T09:25:18.211Z,93844.19
2023-04-21T09:27:46.321Z,93831.09
2023-04-21T09:30:13.408Z,93842.13
2023-04-21T09:32:40.931Z,93842.06
2023-04-21T09:35:11.640Z,93834.75
2023-04-21T09:37:39.041Z,93837.06
2023-04-21T09:40:06.637Z,93829.91
2023-04-21T09:42:36.121Z,93837.53
2023-04-21T09:47:40.185Z,93831.59
2023-04-21T09:50:12.249Z,93832.09
2023-04-21T09:52:40.101Z,93822.25
2023-04-21T09:55:11.950Z,93820.53
2023-04-21T09:57:41.484Z,93823.63
2023-04-21T10:00:12.070Z,93821.91
2023-04-21T10:02:48.679Z,93816.69
2023-04-21T10:05:16.149Z,93824.53
2023-04-21T10:07:44.589Z,93825.19
2023-04-21T10:10:21.481Z,93820.63
2023-04-21T10:12:48.412Z,93818.50
2023-04-21T10:15:33.250Z,93819.56
2023-04-21T10:18:22.757Z,93827.06
2023-04-21T10:21:07.120Z,93822.16
2023-04-21T10:23:38.062Z,93816.13
2023-04-21T10:26:07.481Z,93817.38
2023-04-21T10:29:01.341Z,93821.81
2023-04-21T10:31:32.867Z,93806.13
2023-04-21T10:34:08.498Z,93816.56
2023-04-21T10:36:47.441Z,93812.59
2023-04-21T10:39:44.068Z,93810.38
2023-04-21T10:42:13.880Z,93811.34
2023-04-21T10:44:44.525Z,93814.81
2023-04-21T10:47:11.567Z,93809.81
2023-04-21T10:49:39.840Z,93808.91
2023-04-21T10:52:09.951Z,93818.72
2023-04-21T10:54:42.177Z,93808.22
2023-04-21T10:57:11.422Z,93807.28
2023-04-21T10:59:38.289Z,93813.19
2023-04-21T11:02:09.103Z,93810.56
2023-04-21T11:04:36.528Z,93817.91
2023-04-21T11:07:14.276Z,93821.78
2023-04-21T11:09:41.930Z,93820.28
2023-04-21T11:12:10.946Z,93817.59
2023-04-21T11:14:39.760Z,93807.47
2023-04-21T11:17:11.834Z,93803.97
2023-04-21T11:19:38.775Z,93803.47
2023-04-21T11:22:06.225Z,93804.97
2023-04-21T11:24:33.229Z,93805.03
2023-04-21T11:27:02.265Z,93802.22
2023-04-21T11:29:31.731Z,93799.09
2023-04-21T11:31:59.394Z,93799.06
2023-04-21T11:34:26.913Z,93796.44
2023-04-21T11:36:53.934Z,93799.34
2023-04-21T11:39:22.158Z,93801.16
2023-04-21T11:41:50.946Z,93786.41
2023-04-21T11:44:36.676Z,93799.00
2023-04-21T11:47:17.409Z,93809.28
2023-04-21T11:49:49.052Z,93804.25
2023-04-21T11:52:39.422Z,93790.66
2023-04-21T11:55:18.853Z,93798.00
2023-04-21T11:57:45.741Z,93797.19
2023-04-21T12:00:15.369Z,93799.75
2023-04-21T12:02:43.569Z,93789.09
2023-04-21T12:05:12.716Z,93786.16
2023-04-21T12:07:44.561Z,93789.25
2023-04-21T12:10:13.336Z,93781.44
2023-04-21T12:12:41.785Z,93801.38
2023-04-21T12:15:10.086Z,93793.78
2023-04-21T12:17:46.049Z,93783.25
2023-04-21T12:20:14.761Z,93791.66
2023-04-21T12:22:41.519Z,93798.50
2023-04-21T12:25:09.143Z,93788.03
2023-04-21T12:27:35.875Z,93785.97
2023-04-21T12:30:04.163Z,93784.88
2023-04-21T12:32:31.061Z,93786.47
2023-04-21T12:34:58.009Z,93797.44
2023-04-21T12:37:24.755Z,93783.00
2023-04-21T12:39:51.427Z,93784.63
2023-04-21T12:42:18.212Z,93780.69
2023-04-21T12:44:45.167Z,93790.00
2023-04-21T12:47:11.925Z,93790.25
2023-04-21T12:49:38.628Z,93786.44
2023-04-21T12:52:06.234Z,93776.69
2023-04-21T12:54:33.510Z,93773.75
2023-04-21T12:57:00.207Z,93774.03
2023-04-21T12:59:27.118Z,93767.44
2023-04-21T13:01:54.038Z,93777.22
2023-04-21T13:04:22.048Z,93772.50
2023-04-21T13:06:49.111Z,93773.13
2023-04-21T13:09:17.070Z,93766.72
2023-04-21T13:11:43.925Z,93761.06
2023-04-21T13:14:11.064Z,93764.28
2023-04-21T13:16:37.917Z,93756.94
2023-04-21T13:19:04.996Z,93747.75
2023-04-21T13:21:32.846Z,93760.88
2023-04-21T13:23:59.679Z,93754.44
2023-04-21T13:26:27.115Z,93738.28
2023-04-21T13:28:54.056Z,93747.25
2023-04-21T13:31:21.036Z,93734.97
2023-04-21T13:33:47.957Z,93739.53
2023-04-21T13:36:14.698Z,93744.50
2023-04-21T13:38:41.897Z,93735.22
2023-04-21T13:41:08.825Z,93743.09
2023-04-21T13:43:35.947Z,93741.47
2023-04-21T13:46:02.886Z,93730.03
2023-04-21T13:48:29.928Z,93736.59
2023-04-21T13:50:56.859Z,93730.03
2023-04-21T13:53:23.647Z,93732.94
2023-04-21T13:55:50.631Z,93734.38
2023-04-21T13:58:17.979Z,93722.91
2023-04-21T14:00:44.802Z,93729.25
2023-04-21T14:03:12.033Z,93722.19
2023-04-21T14:05:39.409Z,93725.31
2023-04-21T14:08:06.392Z,93710.81
2023-04-21T14:10:33.382Z,93713.47
2023-04-21T14:13:00.169Z,93715.72
2023-04-21T14:15:27.226Z,93712.56
2023-04-21T14:17:54.174Z,93716.22
2023-04-21T14:20:21.178Z,93712.72
2023-04-21T14:22:47.973Z,93712.03
2023-04-21T14:25:15.111Z,93695.81
2023-04-21T14:27:42.027Z,93696.91
2023-04-21T14:30:10.608Z,93708.81
2023-04-21T14:32:37.575Z,93707.72
2023-04-21T14:35:05.877Z,93706.31
2023-04-21T14:37:33.179Z,93691.97
2023-04-21T14:40:00.202Z,93689.59
2023-04-21T14:42:26.942Z,93689.47
2023-04-21T14:44:53.919Z,93690.28
2023-04-21T14:47:21.976Z,93686.69
2023-04-21T14:49:54.686Z,93685.41
2023-04-21T14:52:24.728Z,93695.50
2023-04-21T14:54:51.649Z,93683.59
2023-04-21T14:57:21.163Z,93686.06
2023-04-21T14:59:50.048Z,93688.66
2023-04-21T15:02:17.058Z,93688.13
2023-04-21T15:04:43.915Z,93682.75
2023-04-21T15:07:10.709Z,93671.81
2023-04-21T15:09:37.799Z,93675.19
2023-04-21T15:12:05.438Z,93679.56
2023-04-21T15:14:32.223Z,93675.69
2023-04-21T15:16:59.005Z,93683.53
2023-04-21T15:19:25.882Z,93680.38
2023-04-21T15:21:52.884Z,93678.53
2023-04-21T15:24:19.785Z,93676.25
2023-04-21T15:26:46.552Z,93676.28
2023-04-21T15:29:13.384Z,93676.28
2023-04-21T15:31:40.347Z,93664.72
2023-04-21T15:34:07.224Z,93667.84
2023-04-21T15:36:34.413Z,93666.56
2023-04-21T15:39:01.219Z,93663.31
2023-04-21T15:41:29.656Z,93666.81
2023-04-21T15:43:56.509Z,93662.69
2023-04-21T15:46:23.330Z,93661.19
2023-04-21T15:48:50.376Z,93660.97
2023-04-21T15:51:18.796Z,93659.28
2023-04-21T15:53:48.003Z,93654.34
2023-04-21T15:56:15.699Z,93657.50
2023-04-21T15:58:42.719Z,93647.38
2023-04-21T16:01:09.731Z,93647.44
2023-04-21T16:03:37.084Z,93649.19
2023-04-21T16:06:04.348Z,93646.66
2023-04-21T16:08:33.323Z,93652.72
2023-04-21T16:11:00.967Z,93645.91
2023-04-21T16:13:27.904Z,93652.53
2023-04-21T16:15:54.754Z,93655.41
2023-04-21T16:18:21.637Z,93653.84
2023-04-21T16:20:48.517Z,93655.16
2023-04-21T16:23:15.506Z,93648.59
2023-04-21T16:25:42.542Z,93648.59
2023-04-21T16:28:09.925Z,93652.56
2023-04-21T16:30:38.561Z,93653.66
2023-04-21T16:33:05.391Z,93653.09
2023-04-21T16:35:32.164Z,93647.41
2023-04-21T16:37:58.932Z,93654.19
2023-04-21T16:40:25.766Z,93656.00
2023-04-21T16:42:52.901Z,93652.63
2023-04-21T16:45:19.790Z,93657.63
2023-04-21T16:47:46.706Z,93657.59
2023-04-21T16:50:13.757Z,93651.03
2023-04-21T16:52:40.672Z,93658.63
2023-04-21T16:55:08.268Z,93649.97
2023-04-21T16:57:35.141Z,93659.66
2023-04-21T17:00:04.584Z,93662.78
2023-04-21T17:02:31.785Z,93662.53
2023-04-21T17:04:58.600Z,93676.88
2023-04-21T17:07:25.552Z,93671.09
2023-04-21T17:09:52.379Z,93677.03
2023-04-21T17:12:19.145Z,93688.22
2023-04-21T17:14:46.231Z,93688.63
2023-04-21T17:17:12.927Z,93681.44
2023-04-21T17:19:40.437Z,93679.78
2023-04-21T17:22:07.163Z,93684.34
2023-04-21T17:24:44.998Z,93680.66
2023-04-21T17:27:18.134Z,93687.38
2023-04-21T17:29:44.850Z,93688.13
2023-04-21T17:32:11.671Z,93687.91
2023-04-21T17:34:38.772Z,93690.09
2023-04-21T17:37:06.168Z,93697.38
2023-04-21T17:39:32.949Z,93692.28
2023-04-21T17:41:59.724Z,93698.19
2023-04-21T17:44:26.419Z,93703.69
2023-04-21T17:46:53.187Z,93708.78
2023-04-21T17:49:19.957Z,93701.41
2023-04-21T17:51:46.656Z,93704.16
2023-04-21T17:54:13.371Z,93714.97
2023-04-21T17:56:41.092Z,93708.19
2023-04-21T17:59:07.925Z,93699.81
2023-04-21T18:01:34.640Z,93722.84
2023-04-21T18:04:01.874Z,93707.06
2023-04-21T18:06:28.811Z,93724.94
2023-04-21T18:08:56.016Z,93714.94
2023-04-21T18:11:23.101Z,93721.19
2023-04-21T18:13:50.099Z,93729.22
2023-04-21T18:16:16.750Z,93724.47
2023-04-21T18:18:43.620Z,93728.19
2023-04-21T18:21:10.342Z,93738.25
2023-04-21T18:23:38.560Z,93753.88
2023-04-21T18:26:05.973Z,93747.44
2023-04-21T18:28:32.654Z,93760.00
2023-04-21T18:30:59.922Z,93760.59
2023-04-21T18:33:27.128Z,93757.72
2023-04-21T18:35:53.861Z,93768.41
2023-04-21T18:38:20.464Z,93768.38
2023-04-21T18:40:47.225Z,93772.72
2023-04-21T18:43:14.575Z,93774.53
2023-04-21T18:45:41.566Z,93773.78
2023-04-21T18:48:08.574Z,93784.41
2023-04-21T18:50:39.750Z,93776.03
2023-04-21T18:53:07.657Z,93778.22
2023-04-21T18:55:35.928Z,93777.56
2023-04-21T18:58:02.652Z,93777.44
2023-04-21T19:00:30.048Z,93772.78
2023-04-21T19:02:57.074Z,93783.09
2023-04-21T19:05:23.838Z,93788.75
2023-04-21T19:07:50.544Z,93778.91
2023-04-21T19:10:17.403Z,93786.00
2023-04-21T19:12:44.151Z,93787.25
2023-04-21T19:15:11.925Z,93778.44
2023-04-21T19:17:39.744Z,93786.81
2023-04-21T19:20:07.255Z,93771.59
2023-04-21T19:22:36.240Z,93785.91
2023-04-21T19:25:03.363Z,93783.75
2023-04-21T19:27:30.558Z,93783.53
2023-04-21T19:29:58.859Z,93790.28
2023-04-21T19:32:26.038Z,93788.47
2023-04-21T19:34:53.070Z,93788.22
2023-04-21T19:37:19.828Z,93782.78
2023-04-21T19:39:46.541Z,93799.13
2023-04-21T19:42:13.308Z,93792.66
2023-04-21T19:44:40.250Z,93793.63
2023-04-21T19:47:07.321Z,93803.66
2023-04-21T19:49:34.338Z,93788.84
2023-04-21T19:52:01.317Z,93787.38
2023-04-21T19:54:28.056Z,93791.94
2023-04-21T19:56:55.567Z,93777.50
2023-04-21T19:59:22.342Z,93792.84
2023-04-21T20:01:49.077Z,93771.53
2023-04-21T20:04:16.666Z,93781.59
2023-04-21T20:06:44.050Z,93786.66
2023-04-21T20:09:11.057Z,93788.28
2023-04-21T20:11:37.738Z,93787.28
2023-04-21T20:14:04.500Z,93793.66
2023-04-21T20:16:32.932Z,93790.06
2023-04-21T20:19:00.062Z,93781.69
2023-04-21T20:21:27.448Z,93792.06
2023-04-21T20:23:54.072Z,93789.34
2023-04-21T20:26:20.895Z,93779.84
2023-04-21T20:28:47.531Z,93785.22
2023-04-21T20:31:14.746Z,93782.44
2023-04-21T20:33:41.550Z,93793.81
2023-04-21T20:36:08.486Z,93796.94
2023-04-21T20:38:35.655Z,93789.09
2023-04-21T20:41:03.374Z,93795.34
2023-04-21T20:43:33.308Z,93798.44
2023-04-21T20:46:03.601Z,93795.72
2023-04-21T20:48:30.688Z,93787.28
2023-04-21T20:50:57.324Z,93791.22
2023-04-21T20:53:24.023Z,93792.69
2023-04-21T20:55:50.881Z,93781.31
2023-04-21T20:58:17.507Z,93792.59
2023-04-21T21:00:44.307Z,93793.25
2023-04-21T21:03:12.045Z,93802.44
2023-04-21T21:05:39.066Z,93780.28
2023-04-21T21:08:05.998Z,93788.03
2023-04-21T21:10:32.745Z,93797.34
2023-04-21T21:12:59.779Z,93802.44
2023-04-21T21:15:30.877Z,93818.28
2023-04-21T21:17:57.761Z,93812.84
2023-04-21T21:20:24.761Z,93797.84
2023-04-21T21:22:52.683Z,93809.03
2023-04-21T21:25:19.335Z,93812.66
2023-04-21T21:27:46.425Z,93812.16
2023-04-21T21:30:13.369Z,93809.16
2023-04-21T21:32:40.024Z,93817.75
2023-04-21T21:35:09.531Z,93815.81
2023-04-21T21:37:37.301Z,93807.63
2023-04-21T21:40:04.310Z,93806.81
2023-04-21T21:42:30.943Z,93816.91
2023-04-21T21:44:57.674Z,93817.75
2023-04-21T21:47:24.352Z,93812.97
2023-04-21T21:49:55.034Z,93823.94
2023-04-21T21:52:22.108Z,93814.03
2023-04-21T21:54:48.739Z,93828.09
2023-04-21T21:57:15.778Z,93822.16
2023-04-21T21:59:42.551Z,93824.97
2023-04-21T22:02:09.219Z,93827.75
2023-04-21T22:04:36.032Z,93829.34
2023-04-21T22:07:03.787Z,93822.28
2023-04-21T22:09:30.540Z,93825.91
2023-04-21T22:11:57.318Z,93830.28
2023-04-21T22:14:24.310Z,93833.69
2023-04-21T22:16:53.078Z,93830.53
2023-04-21T22:19:20.345Z,93833.59
2023-04-21T22:21:47.192Z,93835.91
2023-04-21T22:24:13.956Z,93835.31
2023-04-21T22:26:40.772Z,93835.34
2023-04-21T22:29:07.461Z,93830.03
2023-04-21T22:31:34.349Z,93832.78
2023-04-21T22:34:00.997Z,93843.97
2023-04-21T22:36:27.659Z,93846.97
2023-04-21T22:38:54.277Z,93849.53
2023-04-21T22:41:21.230Z,93848.94
2023-04-21T22:43:48.061Z,93845.97
2023-04-21T22:46:14.800Z,93845.03
2023-04-21T22:48:41.562Z,93850.41
2023-04-21T22:51:08.230Z,93837.69
2023-04-21T22:53:35.062Z,93845.03
2023-04-21T22:56:01.924Z,93842.91
2023-04-21T22:58:28.539Z,93846.66
2023-04-21T23:00:55.287Z,93838.91
2023-04-21T23:03:23.068Z,93847.22
2023-04-21T23:05:50.049Z,93845.88
2023-04-21T23:08:16.750Z,93847.66
2023-04-21T23:10:43.513Z,93863.75
2023-04-21T23:13:10.199Z,93854.44
2023-04-21T23:15:36.940Z,93855.03
2023-04-21T23:18:03.795Z,93852.06
2023-04-21T23:20:31.221Z,93846.50
2023-04-21T23:22:58.525Z,93834.19
2023-04-21T23:25:25.585Z,93854.47
2023-04-21T23:27:52.236Z,93856.00
2023-04-21T23:30:19.055Z,93850.66
2023-04-21T23:32:45.806Z,93850.03
2023-04-21T23:35:12.743Z,93849.44
2023-04-21T23:37:39.573Z,93860.53
2023-04-21T23:40:11.250Z,93843.31
2023-04-21T23:42:38.874Z,93829.25
2023-04-21T23:45:06.623Z,93851.84
2023-04-21T23:47:33.893Z,93853.59
2023-04-21T23:50:00.804Z,93854.81
2023-04-21T23:52:27.605Z,93848.41
2023-04-21T23:54:54.339Z,93847.59
2023-04-21T23:57:21.099Z,93849.78
2023-04-21T23:59:47.908Z,93848.81
